Latest Weather Observations for Kyabram

IDV60801

Issued at 8:05 pm EDT Friday 24 October 2014 (issued every 30 minutes, with the page automatically refreshed every 10 minutes)

About weather observations | Map of weather stations | Latest weather observations for VIC | Other Formats
Station Details ID: 080091 Name: KYABRAM Lat: -36.34 Lon: 145.06 Height: 105.0 m
Data from the previous 72 hours. | See also: Recent months at Kyabram
Date/Time
EDT
Temp
°C
App
Temp
°C
Dew
Point
Rel
Hum
%
Delta-T
°C
Wind Press
QNH
hPa
Press
MSL
hPa
Rain
since 9 am
mm
Dir
 
Spd
km/h
Gust
km/h
Spd
kts
Gust
kts
24/08:00pm 22.7 22.7 9.8 44 7.0 NNW 0 0 0 0 - - 0.0
24/07:30pm 24.4 24.2 9.2 38 8.3 WNW 0 0 0 0 - - 0.0
24/07:00pm 26.5 26.2 8.5 32 9.8 CALM 0 6 0 3 - - 0.0
24/06:30pm 27.8 26.3 9.1 31 10.3 NW 7 13 4 7 - - 0.0
24/06:00pm 29.0 27.0 8.7 28 11.2 NW 9 15 5 8 - - 0.0
24/05:30pm 29.4 26.9 4.8 21 12.8 NW 7 15 4 8 - - 0.0
24/05:00pm 30.1 26.6 5.4 21 13.0 WNW 13 26 7 14 - - 0.0
24/04:30pm 30.2 26.7 5.5 21 13.0 WNW 13 24 7 13 - - 0.0
24/04:00pm 30.4 27.5 8.2 25 12.3 WNW 13 22 7 12 - - 0.0
24/03:30pm 30.1 27.6 11.1 31 11.0 WNW 15 26 8 14 - - 0.0
24/03:00pm 30.5 28.0 11.0 30 11.3 W 15 26 8 14 - - 0.0
24/02:30pm 27.9 26.6 13.8 42 8.4 NW 13 22 7 12 - - 0.0
24/02:00pm 28.1 26.5 12.8 38 9.0 WNW 13 20 7 11 - - 0.0
24/01:30pm 28.4 27.4 13.5 40 8.9 WNW 11 26 6 14 - - 0.0
24/01:00pm 27.7 27.1 15.7 48 7.4 WNW 13 22 7 12 - - 0.0
24/12:30pm 27.1 27.4 16.1 51 6.8 W 9 15 5 8 - - 0.0
24/12:00pm 27.1 26.9 15.8 50 6.9 W 11 22 6 12 - - 0.0
24/11:30am 26.8 27.7 17.6 57 5.8 NW 9 17 5 9 - - 0.0
24/11:00am 26.2 26.6 16.4 54 6.1 WNW 9 19 5 10 - - 0.0
24/10:30am 25.6 26.4 16.4 56 5.7 NW 7 17 4 9 - - 0.0
24/10:00am 24.2 23.7 14.9 56 5.6 NNW 11 17 6 9 - - 0.0
24/09:30am 23.3 22.5 14.0 56 5.5 N 11 17 6 9 - - 0.0
24/09:00am 21.5 19.8 12.4 56 5.2 N 13 19 7 10 - - 0.0
24/08:30am 20.2 21.3 13.4 65 3.9 CALM 0 9 0 5 - - 0.0
24/08:00am 18.7 19.6 12.9 69 3.3 CALM 0 0 0 0 - - 0.0
24/07:30am 17.6 18.8 13.7 78 2.2 CALM 0 0 0 0 - - 0.0
24/07:00am 15.3 16.1 12.4 83 1.6 CALM 0 0 0 0 - - 0.0
24/06:30am 14.6 15.3 12.1 85 1.4 CALM 0 0 0 0 - - 0.0
24/06:00am 14.9 15.4 11.7 81 1.7 NE 0 0 0 0 - - 0.0
24/05:30am 15.1 14.9 11.9 81 1.7 ENE 4 9 2 5 - - 0.0
24/05:00am 16.0 15.1 12.6 80 1.9 ENE 9 13 5 7 - - 0.0
24/04:30am 15.0 15.9 12.9 87 1.2 CALM 0 4 0 2 - - 0.0
24/04:00am 15.0 16.1 13.5 91 0.8 CALM 0 0 0 0 - - 0.0
24/03:30am 15.4 15.2 13.6 89 1.0 E 7 9 4 5 - - 0.0
24/03:00am 15.6 15.2 14.1 91 0.9 SE 9 11 5 6 - - 0.0
24/02:30am 15.7 15.9 14.7 94 0.6 SE 7 15 4 8 - - 0.0
24/02:00am 15.3 16.6 14.2 93 0.6 CALM 0 7 0 4 - - 0.0
24/01:30am 16.0 16.1 14.5 91 0.9 S 7 11 4 6 - - 0.0
24/01:00am 16.1 17.2 14.6 91 0.9 SSE 2 11 1 6 - - 0.0
24/12:30am 16.4 16.6 14.8 90 0.9 S 7 11 4 6 - - 0.0
24/12:00am 16.4 16.5 14.4 88 1.1 S 7 9 4 5 - - 0.0
 
Date/Time
EDT
Temp
°C
App
Temp
°C
Dew
Point
Rel
Hum
%
Delta-T
°C
Wind Press
QNH
hPa
Press
MSL
hPa
Rain
since 9 am
mm
Dir
 
Spd
km/h
Gust
km/h
Spd
kts
Gust
kts
23/11:30pm 17.0 17.1 14.5 85 1.4 S 7 11 4 6 - - 0.0
23/11:00pm 17.5 17.7 14.6 83 1.7 S 7 13 4 7 - - 0.0
23/10:30pm 18.0 17.8 14.7 81 1.9 S 9 13 5 7 - - 0.0
23/10:00pm 18.5 18.3 14.6 78 2.3 S 9 11 5 6 - - 0.0
23/09:30pm 19.2 19.1 14.9 76 2.5 S 9 13 5 7 - - 0.0
23/09:00pm 19.9 19.4 14.9 73 2.9 S 11 13 6 7 - - 0.0
23/08:30pm 21.1 21.2 15.4 70 3.4 S 9 15 5 8 - - 0.0
23/08:00pm 22.3 22.1 15.6 66 4.0 S 11 17 6 9 - - 0.0
23/07:30pm 24.1 24.0 16.1 61 4.9 S 11 17 6 9 - - 0.0
23/07:00pm 26.1 25.4 16.4 55 6.0 S 15 24 8 13 - - 0.0
23/06:30pm 27.9 27.2 16.5 50 7.1 S 15 24 8 13 - - 0.0
23/06:00pm 29.9 29.4 16.0 43 8.7 S 13 22 7 12 - - 0.0
23/05:30pm 30.4 29.8 15.7 41 9.1 S 13 22 7 12 - - 0.0
23/05:00pm 31.4 30.6 15.0 37 10.1 S 13 20 7 11 - - 0.0
23/04:30pm 33.5 33.0 11.9 27 12.8 SE 6 11 3 6 - - 0.0
23/04:00pm 33.2 33.5 12.2 28 12.5 ENE 2 11 1 6 - - 0.0
23/03:30pm 32.5 31.5 12.2 29 12.1 E 9 17 5 9 - - 0.0
23/03:00pm 32.4 31.7 12.1 29 12.0 ENE 7 15 4 8 - - 0.0
23/02:30pm 32.0 31.4 11.7 28 11.9 ENE 6 17 3 9 - - 0.0
23/02:00pm 31.9 31.0 12.7 31 11.5 ENE 9 17 5 9 - - 0.0
23/01:30pm 30.8 29.2 12.7 33 10.8 ESE 13 20 7 11 - - 0.0
23/01:00pm 30.3 29.1 12.7 34 10.4 E 11 17 6 9 - - 0.0
23/12:30pm 29.5 29.3 15.6 43 8.6 E 11 19 6 10 - - 0.0
23/12:00pm 28.7 28.8 16.6 48 7.6 ESE 11 20 6 11 - - 0.0
23/11:30am 27.4 27.2 15.7 48 7.2 ESE 11 17 6 9 - - 0.0
23/11:00am 25.5 24.1 14.6 51 6.5 ESE 15 24 8 13 - - 0.0
23/10:30am 24.4 23.0 14.5 54 5.9 ESE 15 22 8 12 - - 0.0
23/10:00am 23.6 22.8 15.1 59 5.1 SSE 13 20 7 11 - - 0.0
23/09:30am 21.5 20.4 14.2 63 4.3 SSE 13 22 7 12 - - 0.0
23/09:00am 20.2 19.5 14.3 69 3.4 SSE 11 17 6 9 - - 0.0
23/08:30am 19.3 18.6 14.3 73 2.9 SSE 11 17 6 9 - - 0.0
23/08:00am 18.1 17.2 13.8 76 2.5 SSE 11 19 6 10 - - 0.0
23/07:30am 16.5 15.4 13.0 80 2.0 SSE 11 20 6 11 - - 0.0
23/07:00am 15.9 15.1 12.8 82 1.7 SSE 9 17 5 9 - - 0.0
23/06:30am 15.6 15.1 12.5 82 1.7 SSE 7 13 4 7 - - 0.0
23/06:00am 15.7 15.2 12.5 81 1.8 SSE 7 9 4 5 - - 0.0
23/05:30am 16.1 15.6 12.7 80 1.9 SSE 7 11 4 6 - - 0.0
23/05:00am 16.5 15.7 12.8 79 2.1 SSE 9 13 5 7 - - 0.0
23/04:30am 16.9 16.4 12.8 77 2.3 S 7 11 4 6 - - 0.0
23/04:00am 17.9 17.5 13.0 73 2.8 SSE 7 13 4 7 - - 0.0
23/03:30am 18.6 17.8 13.0 70 3.2 S 9 13 5 7 - - 0.0
23/03:00am 18.8 18.9 12.8 68 3.4 S 4 11 2 6 - - 0.0
23/02:30am 19.6 20.1 12.8 65 3.9 S 2 11 1 6 - - 0.0
23/02:00am 20.6 20.4 13.1 62 4.3 SE 6 9 3 5 - - 0.0
23/01:30am 19.7 20.7 13.2 66 3.7 CALM 0 0 0 0 - - 0.0
23/01:00am 19.9 20.9 13.1 65 3.9 CALM 0 0 0 0 - - 0.0
23/12:30am 21.5 21.1 12.9 58 4.9 NNE 7 11 4 6 - - 0.0
23/12:00am 21.7 21.3 13.1 58 4.9 NE 7 13 4 7 - - 0.0
 
Date/Time
EDT
Temp
°C
App
Temp
°C
Dew
Point
Rel
Hum
%
Delta-T
°C
Wind Press
QNH
hPa
Press
MSL
hPa
Rain
since 9 am
mm
Dir
 
Spd
km/h
Gust
km/h
Spd
kts
Gust
kts
22/11:30pm 21.5 20.8 14.2 63 4.3 E 11 13 6 7 - - 0.0
22/11:00pm 22.3 23.4 13.6 58 5.1 CALM 0 0 0 0 - - 0.0
22/10:30pm 22.9 24.0 13.4 55 5.5 CALM 0 0 0 0 - - 0.0
22/10:00pm 23.6 24.7 13.5 53 5.9 CALM 0 0 0 0 - - 0.0
22/09:30pm 24.1 21.9 13.3 51 6.3 W 17 28 9 15 - - 0.0
22/09:00pm 20.8 22.4 14.9 69 3.5 CALM 0 0 0 0 - - 0.0
22/08:30pm 22.4 23.7 14.0 59 4.9 CALM 0 0 0 0 - - 0.0
22/08:00pm 23.2 24.8 15.0 60 4.9 CALM 0 0 0 0 - - 0.0
22/07:30pm 24.0 25.5 14.7 56 5.6 CALM 0 0 0 0 - - 0.0
22/07:00pm 25.7 27.4 15.1 52 6.4 CALM 0 0 0 0 - - 0.0
22/06:30pm 28.5 27.4 12.0 36 9.6 ENE 9 15 5 8 - - 0.0
22/06:00pm 29.0 28.0 12.4 36 9.7 NNE 9 15 5 8 - - 0.0
22/05:30pm 29.2 28.2 12.2 35 10.0 NNE 9 13 5 7 - - 0.0
22/05:00pm 29.5 28.7 12.9 36 9.8 NNE 9 13 5 7 - - 0.0
22/04:30pm 29.0 27.8 12.8 36 9.6 NNE 11 19 6 10 - - 0.0
22/04:00pm 30.0 29.0 13.3 36 10.0 NNE 11 22 6 12 - - 0.0
22/03:30pm 29.1 26.9 12.1 35 9.9 N 15 20 8 11 - - 0.0
22/03:00pm 29.3 27.8 13.1 37 9.6 NNE 13 19 7 10 - - 0.0
22/02:30pm 28.2 26.6 12.9 38 9.0 ENE 13 24 7 13 - - 0.0
22/02:00pm 28.1 26.5 12.8 38 9.0 NE 13 22 7 12 - - 0.0
22/01:30pm 27.4 25.2 13.4 42 8.3 ENE 17 26 9 14 - - 0.0
22/01:00pm 26.3 24.5 13.4 45 7.6 NE 15 30 8 16 - - 0.0
22/12:30pm 25.1 23.3 12.0 44 7.5 NE 13 22 7 12 - - 0.0
22/12:00pm 24.3 22.0 11.9 45 7.1 NE 15 24 8 13 - - 0.0
22/11:30am 23.5 21.4 12.5 50 6.3 NE 15 26 8 14 - - 0.0
22/11:00am 22.8 20.7 12.4 52 5.9 NE 15 22 8 12 - - 0.0
22/10:30am 21.7 19.6 12.5 56 5.2 NE 15 24 8 13 - - 0.0
22/10:00am 20.3 17.2 11.5 57 4.9 ENE 19 28 10 15 - - 0.0
22/09:30am 18.9 15.9 10.7 59 4.5 NE 17 30 9 16 - - 0.0
22/09:00am 18.0 14.8 11.1 64 3.8 NE 19 28 10 15 - - 0.0
22/08:30am 16.7 14.2 11.0 69 3.1 NE 15 24 8 13 - - 0.0
22/08:00am 15.8 13.2 10.6 71 2.8 NE 15 28 8 15 - - 0.0
22/07:30am 14.5 11.8 10.5 77 2.1 ENE 15 22 8 12 - - 0.0
22/07:00am 13.1 11.1 10.3 83 1.5 ENE 11 17 6 9 - - 0.0
22/06:30am 12.2 10.1 9.9 86 1.2 ENE 11 15 6 8 - - 0.0
22/06:00am 12.5 10.8 10.0 85 1.3 ENE 9 15 5 8 - - 0.0
22/05:30am 12.5 10.8 10.0 85 1.3 NE 9 15 5 8 - - 0.0
22/05:00am 12.6 11.1 10.5 87 1.1 ENE 9 15 5 8 - - 0.0
22/04:30am 12.6 11.0 10.3 86 1.2 ENE 9 11 5 6 - - 0.0
22/04:00am 13.4 11.9 10.6 83 1.5 ENE 9 13 5 7 - - 0.0
22/03:30am 14.2 12.8 10.8 80 1.8 ENE 9 17 5 9 - - 0.0
22/03:00am 14.3 13.0 11.1 81 1.7 ENE 9 15 5 8 - - 0.0
22/02:30am 14.6 13.6 11.0 79 1.9 NE 7 11 4 6 - - 0.0
22/02:00am 14.6 13.5 10.6 77 2.1 NE 7 9 4 5 - - 0.0
22/01:30am 15.7 14.3 10.9 73 2.6 ENE 9 15 5 8 - - 0.0
22/01:00am 16.3 14.5 11.0 71 2.9 ENE 11 15 6 8 - - 0.0
22/12:30am 16.3 15.2 10.8 70 2.9 ENE 7 13 4 7 - - 0.0
22/12:00am 16.9 15.2 11.2 69 3.1 ENE 11 15 6 8 - - 0.0
 
Date/Time
EDT
Temp
°C
App
Temp
°C
Dew
Point
Rel
Hum
%
Delta-T
°C
Wind Press
QNH
hPa
Press
MSL
hPa
Rain
since 9 am
mm
Dir
 
Spd
km/h
Gust
km/h
Spd
kts
Gust
kts
21/11:30pm 16.0 16.4 11.4 74 2.5 CALM 0 0 0 0 - - 0.0
21/11:00pm 16.2 15.7 12.2 77 2.2 E 6 7 3 4 - - 0.0
21/10:30pm 16.8 17.6 12.7 77 2.3 CALM 0 0 0 0 - - 0.0
21/10:00pm 16.9 17.8 12.8 77 2.3 CALM 0 0 0 0 - - 0.0
21/09:30pm 17.6 18.4 12.7 73 2.7 CALM 0 0 0 0 - - 0.0
21/09:00pm 18.4 19.3 12.8 70 3.2 CALM 0 0 0 0 - - 0.0
21/08:30pm 19.3 20.4 13.5 69 3.3 CALM 0 0 0 0 - - 0.0

Other Formats:

Comma delimited format used in spreadsheet applications
http://www.bom.gov.au/fwo/IDV60801/IDV60801.95833.axf

JavaScript Object Notation format (JSON) in row-major order
http://www.bom.gov.au/fwo/IDV60801/IDV60801.95833.json